Terminal Aerodrome Forecast
Issued by NWS

Home | Current Version | Previous Version | Text Only | Print | Product List | Glossary On
Versions: 1 2 3 4 5 6 7 8 9 10 11 12 13 14 15 16 17
000
FTAK31 PANC 181126 CCA
TAFATK
TAF COR
PATK 181126Z 1811/1912 16005KT P6SM -SHRA SCT015 OVC040
      TEMPO 1812/1816 BKN015
     FM182200 22007KT P6SM -RA BKN025 OVC040
     FM190900 VRB03KT P6SM -SHRA SCT008 BKN015 OVC040=

USA.gov is the U.S. government's official web portal to all federal, state and local government web resources and services.